Strona główna
METAR-TAF:

METAR-TAF

Lotnisko :

Dżudda, Arabia Saudyjska

Port lotniczy Dżudda

Szerokość geograficzna: 21-42N, Długość geograficzna: 039-11E, wysokość: 15 m

Aktualna obserwacja pogody

Raport powstał 47 minut temu, godzina 03:00 UTC
Cisza
Temperatura 20°C
Wilgotność 78%
Ciśnienie 1013 hPa
Widzialność 10 km lub więcej
Brak chmur poniżej 1500 m i brak chmur cumulonimbus

METAR: OEJN 180300Z 00000KT CAVOK 20/16 Q1013 NOSIG

czas: 06:47 (03:47 UTC)

Prognoza

Raport powstał 4 godziny i 47 minut temu, godzina 23:00 UTC
Prognoza ważna od 18 godzina 00 UTC do 19 godzina 06 UTC
Wiatr 3 kt z kierunków zmiennych
Widzialność: 7000 m
Stopniowe zmiany
od 18 godzina 08 UTC do 18 godzina 10 UTC
Wiatr 6 kt od północny zachód w porywach dochodzący do 16 kt

TAF: OEJN 172300Z 1800/1906 VRB03KT 7000 NSC BECMG 1808/1810 32006G16KT

Obserwacja i prognoza pogody dla ponad 4000 lotnisk (raport METAR i TAF).

Dostępne stacje oznaczono żółtymi i czerwonymi punktami na mapie.

Najedź kursorem aby zobaczyć nazwę stacji.

Kliknij aby zobaczyć obserwacje i prognozy pogody.

Aby zmienić mapę: kliknij na zielony przycisk z czarnym krzyżykiem, aby powiększyć; na zielony przycisk z myślnikiem, aby pomniejszyć; na zielone strzałki, aby przejść do map sąsiednich.


METAR-TAF: